createdAt,value
2019-04-10T00:00:48.002Z,21.00
2019-04-10T00:05:53.675Z,21.00
2019-04-10T00:11:00.452Z,21.00
2019-04-10T00:16:07.574Z,20.90
2019-04-10T00:21:14.152Z,20.90
2019-04-10T00:26:21.639Z,20.90
2019-04-10T00:31:29.703Z,20.90
2019-04-10T00:36:35.401Z,20.80
2019-04-10T00:41:42.231Z,20.80
2019-04-10T00:46:48.662Z,20.80
2019-04-10T00:51:55.686Z,20.80
2019-04-10T00:57:01.315Z,20.70
2019-04-10T01:02:08.028Z,20.70
2019-04-10T01:07:14.849Z,20.60
2019-04-10T01:12:21.535Z,20.60
2019-04-10T01:17:28.516Z,20.50
2019-04-10T01:22:35.062Z,20.50
2019-04-10T01:27:41.179Z,20.40
2019-04-10T01:32:47.880Z,20.40
2019-04-10T01:37:59.165Z,20.40
2019-04-10T01:43:09.217Z,20.40
2019-04-10T01:48:10.021Z,20.50
2019-04-10T01:53:16.341Z,20.50
2019-04-10T01:58:23.436Z,20.60
2019-04-10T02:03:29.898Z,20.70
2019-04-10T02:08:36.128Z,20.70
2019-04-10T02:13:43.233Z,20.70
2019-04-10T02:18:49.967Z,20.70
2019-04-10T02:23:55.941Z,20.70
2019-04-10T02:29:01.782Z,20.60
2019-04-10T02:34:09.059Z,20.60
2019-04-10T02:39:24.279Z,20.50
2019-04-10T02:44:23.072Z,20.50
2019-04-10T02:49:30.128Z,20.50
2019-04-10T02:54:37.198Z,20.50
2019-04-10T02:59:45.240Z,20.50
2019-04-10T03:04:51.290Z,20.40
2019-04-10T03:10:08.783Z,20.40
2019-04-10T03:15:05.745Z,20.40
2019-04-10T03:20:12.648Z,20.40
2019-04-10T03:25:19.456Z,20.40
2019-04-10T03:30:27.176Z,20.40
2019-04-10T03:35:36.894Z,20.30
2019-04-10T03:40:43.700Z,20.40
2019-04-10T03:45:49.729Z,20.30
2019-04-10T03:50:57.083Z,20.30
2019-04-10T03:56:03.014Z,20.20
2019-04-10T04:01:09.195Z,20.20
2019-04-10T04:06:15.453Z,20.10
2019-04-10T04:11:21.801Z,20.00
2019-04-10T04:16:29.027Z,20.00
2019-04-10T04:21:36.020Z,20.00
2019-04-10T04:26:42.120Z,20.00
2019-04-10T04:31:52.639Z,19.90
2019-04-10T04:36:58.713Z,19.80
2019-04-10T04:42:05.125Z,19.70
2019-04-10T04:47:10.779Z,19.70
2019-04-10T04:52:16.914Z,19.50
2019-04-10T04:57:23.093Z,19.40
2019-04-10T05:02:30.232Z,19.30
2019-04-10T05:07:36.166Z,19.20
2019-04-10T05:12:43.527Z,19.10
2019-04-10T05:17:50.004Z,19.10
2019-04-10T05:22:55.933Z,19.00
2019-04-10T05:28:01.989Z,18.90
2019-04-10T05:33:09.417Z,18.90
2019-04-10T05:38:16.601Z,18.80
2019-04-10T05:43:22.152Z,18.70
2019-04-10T05:48:28.012Z,18.70
2019-04-10T05:53:34.525Z,18.70
2019-04-10T05:58:40.866Z,18.60
2019-04-10T06:03:47.274Z,18.60
2019-04-10T06:08:52.993Z,18.60
2019-04-10T06:13:59.134Z,18.60
2019-04-10T06:19:05.253Z,18.50
2019-04-10T06:24:11.982Z,18.60
2019-04-10T06:29:19.346Z,18.70
2019-04-10T06:34:25.267Z,18.70
2019-04-10T06:39:31.139Z,18.70
2019-04-10T06:44:36.834Z,18.70
2019-04-10T06:49:42.678Z,18.60
2019-04-10T06:54:49.043Z,18.60
2019-04-10T06:59:54.902Z,18.50
2019-04-10T07:05:05.873Z,18.60
2019-04-10T07:10:22.777Z,18.50
2019-04-10T07:15:21.220Z,18.50
2019-04-10T07:20:26.090Z,18.50
2019-04-10T07:25:32.059Z,18.50
2019-04-10T07:30:38.162Z,18.50
2019-04-10T07:35:44.330Z,18.50
2019-04-10T07:40:51.214Z,18.50
2019-04-10T07:45:57.438Z,18.50
2019-04-10T07:51:03.188Z,18.60
2019-04-10T07:56:14.927Z,18.60
2019-04-10T08:01:16.816Z,18.70
2019-04-10T08:06:23.480Z,18.70
2019-04-10T08:11:29.653Z,18.80
2019-04-10T08:16:35.486Z,18.90
2019-04-10T08:21:42.687Z,19.00
2019-04-10T08:26:49.237Z,19.10
2019-04-10T08:31:55.989Z,19.20
2019-04-10T08:37:01.987Z,19.30
2019-04-10T08:42:08.563Z,19.40
2019-04-10T08:47:15.253Z,19.50
2019-04-10T08:52:22.036Z,19.60
2019-04-10T08:57:27.856Z,19.60
2019-04-10T09:02:33.941Z,19.60
2019-04-10T09:07:40.846Z,19.60
2019-04-10T09:12:47.265Z,19.60
2019-04-10T09:17:54.260Z,19.70
2019-04-10T09:23:17.838Z,19.70
2019-04-10T09:28:08.504Z,19.70
2019-04-10T09:33:20.860Z,19.70
2019-04-10T09:38:22.954Z,19.70
2019-04-10T09:43:29.640Z,19.70
2019-04-10T09:48:35.870Z,19.70
2019-04-10T09:53:41.765Z,19.80
2019-04-10T09:58:48.963Z,19.70
2019-04-10T10:03:54.846Z,19.70
2019-04-10T10:09:00.832Z,19.80
2019-04-10T10:14:08.301Z,19.80
2019-04-10T10:19:14.189Z,19.80
2019-04-10T10:24:19.997Z,19.70
2019-04-10T10:29:26.073Z,19.80
2019-04-10T10:34:32.094Z,19.80
2019-04-10T10:39:38.993Z,19.80
2019-04-10T10:44:45.936Z,19.80
2019-04-10T10:49:52.565Z,19.80
2019-04-10T10:54:59.069Z,19.80
2019-04-10T11:00:06.197Z,19.90
2019-04-10T11:05:13.745Z,19.90
2019-04-10T11:10:23.671Z,19.90
2019-04-10T11:15:27.841Z,20.00
2019-04-10T11:20:33.993Z,20.00
2019-04-10T11:25:40.516Z,20.00
2019-04-10T11:30:47.469Z,20.10
2019-04-10T11:35:55.225Z,20.10
2019-04-10T11:41:02.785Z,20.30
2019-04-10T11:46:10.299Z,20.40
2019-04-10T11:51:16.529Z,20.70
2019-04-10T11:56:23.621Z,20.90
2019-04-10T12:01:30.972Z,21.10
2019-04-10T12:06:38.196Z,21.40
2019-04-10T12:11:44.730Z,21.60
2019-04-10T12:16:51.573Z,21.80
2019-04-10T12:21:58.021Z,22.00
2019-04-10T12:27:04.544Z,22.10
2019-04-10T12:32:10.526Z,22.30
2019-04-10T12:37:17.504Z,22.40
2019-04-10T12:42:24.110Z,22.60
2019-04-10T12:47:30.903Z,22.70
2019-04-10T12:52:36.714Z,22.70
2019-04-10T12:57:43.485Z,22.80
2019-04-10T13:02:50.637Z,22.90
2019-04-10T13:07:56.654Z,22.90
2019-04-10T13:13:03.915Z,22.90
2019-04-10T13:18:09.805Z,22.90
2019-04-10T13:23:17.456Z,22.80
2019-04-10T13:28:23.473Z,22.80
2019-04-10T13:33:30.912Z,22.70
2019-04-10T13:38:37.276Z,22.70
2019-04-10T13:43:44.266Z,22.60
2019-04-10T13:48:49.953Z,22.50
2019-04-10T13:53:56.581Z,22.40
2019-04-10T13:59:02.327Z,22.40
2019-04-10T14:04:09.104Z,22.30
2019-04-10T14:09:31.146Z,22.20
2019-04-10T14:14:27.016Z,22.10
2019-04-10T14:19:33.862Z,22.00
2019-04-10T14:24:44.772Z,21.90
2019-04-10T14:29:49.061Z,21.80
2019-04-10T14:34:54.998Z,21.70
2019-04-10T14:40:02.142Z,21.70
2019-04-10T14:45:09.017Z,21.60
2019-04-10T14:50:15.730Z,21.60
2019-04-10T14:55:22.017Z,21.50
2019-04-10T15:00:39.166Z,21.40
2019-04-10T15:05:50.532Z,21.30
2019-04-10T15:10:52.831Z,21.20
2019-04-10T15:15:58.784Z,21.10
2019-04-10T15:21:04.852Z,21.10
2019-04-10T15:26:11.476Z,21.00
2019-04-10T15:31:17.872Z,21.00
2019-04-10T15:36:25.034Z,20.90
2019-04-10T15:41:32.876Z,20.80
2019-04-10T15:46:39.369Z,20.80
2019-04-10T15:51:45.492Z,20.80
2019-04-10T15:56:52.115Z,20.70
2019-04-10T16:01:57.916Z,20.60
2019-04-10T16:07:04.160Z,20.60
2019-04-10T16:12:18.732Z,20.60
2019-04-10T16:17:52.770Z,20.50
2019-04-10T16:23:16.391Z,20.50
2019-04-10T16:28:22.846Z,20.40
2019-04-10T16:33:29.649Z,20.40
2019-04-10T16:38:36.397Z,20.40
2019-04-10T16:43:42.032Z,20.30
2019-04-10T16:48:48.447Z,20.30
2019-04-10T16:53:54.387Z,20.20
2019-04-10T16:59:00.537Z,20.20
2019-04-10T17:04:06.993Z,20.20
2019-04-10T17:09:16.567Z,20.10
2019-04-10T17:14:23.685Z,20.10
2019-04-10T17:19:29.455Z,20.10
2019-04-10T17:24:35.619Z,20.00
2019-04-10T17:29:43.262Z,20.00
2019-04-10T17:34:49.300Z,20.00
2019-04-10T17:39:55.700Z,20.00
2019-04-10T17:45:02.875Z,20.00
2019-04-10T17:50:12.050Z,20.00
2019-04-10T17:55:17.961Z,19.90
2019-04-10T18:00:31.317Z,19.90
2019-04-10T18:05:37.141Z,19.90
2019-04-10T18:10:49.543Z,19.80
2019-04-10T18:15:50.744Z,19.90
2019-04-10T18:20:56.758Z,19.80
2019-04-10T18:26:04.467Z,19.80
2019-04-10T18:31:12.473Z,19.70
2019-04-10T18:36:19.531Z,19.80
2019-04-10T18:41:25.694Z,19.90
2019-04-10T18:46:31.810Z,20.10
2019-04-10T18:51:38.216Z,20.30
2019-04-10T18:56:45.123Z,20.40
2019-04-10T19:02:15.881Z,20.50
2019-04-10T19:07:22.992Z,20.40
2019-04-10T19:12:28.821Z,20.40
2019-04-10T19:17:35.122Z,20.30
2019-04-10T19:22:42.466Z,20.20
2019-04-10T19:27:48.780Z,20.10
2019-04-10T19:32:54.553Z,20.00
2019-04-10T19:38:01.006Z,19.90
2019-04-10T19:43:10.437Z,19.80
2019-04-10T19:48:17.260Z,19.70
2019-04-10T19:53:23.199Z,19.60
2019-04-10T19:58:30.182Z,19.60
2019-04-10T20:03:36.161Z,19.40
2019-04-10T20:08:41.977Z,19.40
2019-04-10T20:13:49.115Z,19.30
2019-04-10T20:18:55.233Z,19.30
2019-04-10T20:24:01.196Z,19.20
2019-04-10T20:29:06.868Z,19.20
2019-04-10T20:34:13.637Z,19.10
2019-04-10T20:39:19.644Z,19.10
2019-04-10T20:44:25.100Z,19.00
2019-04-10T20:49:30.768Z,18.90
2019-04-10T20:54:37.157Z,18.90
2019-04-10T20:59:44.388Z,18.80
2019-04-10T21:04:56.354Z,18.80
2019-04-10T21:09:58.727Z,18.70
2019-04-10T21:15:05.527Z,18.70
2019-04-10T21:20:13.272Z,18.60
2019-04-10T21:25:19.403Z,18.60
2019-04-10T21:30:40.846Z,18.50
2019-04-10T21:35:47.710Z,18.50
2019-04-10T21:40:53.918Z,18.40
2019-04-10T21:45:59.944Z,18.40
2019-04-10T21:51:06.708Z,18.30
2019-04-10T21:56:12.531Z,18.30
2019-04-10T22:01:20.481Z,18.30
2019-04-10T22:06:53.701Z,18.20
2019-04-10T22:12:01.645Z,18.10
2019-04-10T22:17:10.765Z,18.10
2019-04-10T22:22:18.062Z,18.00
2019-04-10T22:27:24.048Z,18.00
2019-04-10T22:32:31.040Z,18.00
2019-04-10T22:37:37.808Z,17.90
2019-04-10T22:42:46.711Z,17.80
2019-04-10T22:47:52.152Z,17.80
2019-04-10T22:52:57.670Z,17.80
2019-04-10T22:58:04.420Z,17.70
2019-04-10T23:03:10.144Z,17.70
2019-04-10T23:08:15.764Z,17.60
2019-04-10T23:13:21.616Z,17.50
2019-04-10T23:18:27.572Z,17.40
2019-04-10T23:23:34.819Z,17.40
2019-04-10T23:28:41.902Z,17.40
2019-04-10T23:33:48.277Z,17.30
2019-04-10T23:38:54.036Z,17.20
2019-04-10T23:43:59.946Z,17.20
2019-04-10T23:49:05.668Z,17.20
2019-04-10T23:54:11.433Z,17.10
2019-04-10T23:59:16.910Z,17.10
